sensor_id;sensor_type;location;lat;lon;timestamp;P1;durP1;ratioP1;P2;durP2;ratioP2
31652;SDS011;18261;53.648;9.910;2022-12-18T00:01:01;61.63;;;26.60;;
31652;SDS011;18261;53.648;9.910;2022-12-18T00:03:30;55.90;;;26.50;;
31652;SDS011;18261;53.648;9.910;2022-12-18T00:05:56;53.55;;;25.45;;
31652;SDS011;18261;53.648;9.910;2022-12-18T00:08:22;53.22;;;25.23;;
31652;SDS011;18261;53.648;9.910;2022-12-18T00:10:48;56.60;;;24.73;;
31652;SDS011;18261;53.648;9.910;2022-12-18T00:13:14;57.75;;;25.80;;
31652;SDS011;18261;53.648;9.910;2022-12-18T00:15:40;59.60;;;24.65;;
31652;SDS011;18261;53.648;9.910;2022-12-18T00:18:06;58.97;;;26.38;;
31652;SDS011;18261;53.648;9.910;2022-12-18T00:20:39;58.03;;;26.30;;
31652;SDS011;18261;53.648;9.910;2022-12-18T00:23:05;53.97;;;24.73;;
31652;SDS011;18261;53.648;9.910;2022-12-18T00:25:32;59.95;;;23.73;;
31652;SDS011;18261;53.648;9.910;2022-12-18T00:27:59;53.38;;;24.13;;
31652;SDS011;18261;53.648;9.910;2022-12-18T00:30:25;60.13;;;25.20;;
31652;SDS011;18261;53.648;9.910;2022-12-18T00:32:51;62.75;;;25.55;;
31652;SDS011;18261;53.648;9.910;2022-12-18T00:35:17;57.33;;;25.35;;
31652;SDS011;18261;53.648;9.910;2022-12-18T00:37:43;56.35;;;25.45;;
31652;SDS011;18261;53.648;9.910;2022-12-18T00:40:09;55.70;;;24.38;;
31652;SDS011;18261;53.648;9.910;2022-12-18T00:42:35;53.22;;;26.33;;
31652;SDS011;18261;53.648;9.910;2022-12-18T00:47:46;50.38;;;23.25;;
31652;SDS011;18261;53.648;9.910;2022-12-18T00:50:12;63.17;;;24.30;;
31652;SDS011;18261;53.648;9.910;2022-12-18T00:52:41;53.28;;;23.40;;
31652;SDS011;18261;53.648;9.910;2022-12-18T00:55:07;51.53;;;23.20;;
31652;SDS011;18261;53.648;9.910;2022-12-18T00:57:33;46.65;;;22.17;;
31652;SDS011;18261;53.648;9.910;2022-12-18T00:59:59;55.50;;;23.95;;
31652;SDS011;18261;53.648;9.910;2022-12-18T01:02:25;55.60;;;23.05;;
31652;SDS011;18261;53.648;9.910;2022-12-18T01:04:51;49.88;;;22.50;;
31652;SDS011;18261;53.648;9.910;2022-12-18T01:07:17;47.80;;;22.55;;
31652;SDS011;18261;53.648;9.910;2022-12-18T01:09:43;48.08;;;22.33;;
31652;SDS011;18261;53.648;9.910;2022-12-18T01:12:09;47.67;;;22.23;;
31652;SDS011;18261;53.648;9.910;2022-12-18T01:14:35;51.40;;;22.85;;
31652;SDS011;18261;53.648;9.910;2022-12-18T01:17:02;50.22;;;21.58;;
31652;SDS011;18261;53.648;9.910;2022-12-18T01:19:28;51.10;;;21.95;;
31652;SDS011;18261;53.648;9.910;2022-12-18T01:21:54;45.97;;;21.83;;
31652;SDS011;18261;53.648;9.910;2022-12-18T01:24:20;45.42;;;21.52;;
31652;SDS011;18261;53.648;9.910;2022-12-18T01:26:46;50.03;;;20.88;;
31652;SDS011;18261;53.648;9.910;2022-12-18T01:29:12;48.00;;;20.95;;
31652;SDS011;18261;53.648;9.910;2022-12-18T01:31:38;45.75;;;22.17;;
31652;SDS011;18261;53.648;9.910;2022-12-18T01:34:04;50.53;;;21.67;;
31652;SDS011;18261;53.648;9.910;2022-12-18T01:36:34;47.80;;;21.20;;
31652;SDS011;18261;53.648;9.910;2022-12-18T01:39:01;44.88;;;20.20;;
31652;SDS011;18261;53.648;9.910;2022-12-18T01:41:29;49.97;;;21.65;;
31652;SDS011;18261;53.648;9.910;2022-12-18T01:46:59;46.40;;;21.92;;
31652;SDS011;18261;53.648;9.910;2022-12-18T01:49:26;42.45;;;20.83;;
31652;SDS011;18261;53.648;9.910;2022-12-18T01:51:51;43.60;;;20.98;;
31652;SDS011;18261;53.648;9.910;2022-12-18T01:54:17;44.35;;;20.08;;
31652;SDS011;18261;53.648;9.910;2022-12-18T01:56:43;39.53;;;19.95;;
31652;SDS011;18261;53.648;9.910;2022-12-18T01:59:09;47.60;;;21.17;;
31652;SDS011;18261;53.648;9.910;2022-12-18T02:01:36;45.33;;;21.55;;
31652;SDS011;18261;53.648;9.910;2022-12-18T02:04:19;46.13;;;20.73;;
31652;SDS011;18261;53.648;9.910;2022-12-18T02:06:45;44.00;;;19.75;;
31652;SDS011;18261;53.648;9.910;2022-12-18T02:09:19;42.45;;;18.27;;
31652;SDS011;18261;53.648;9.910;2022-12-18T02:11:52;49.92;;;20.10;;
31652;SDS011;18261;53.648;9.910;2022-12-18T02:14:28;46.33;;;19.95;;
31652;SDS011;18261;53.648;9.910;2022-12-18T02:18:01;41.80;;;19.65;;
31652;SDS011;18261;53.648;9.910;2022-12-18T02:24:51;50.65;;;20.42;;
31652;SDS011;18261;53.648;9.910;2022-12-18T02:27:19;47.63;;;21.48;;
31652;SDS011;18261;53.648;9.910;2022-12-18T02:29:52;43.70;;;20.38;;
31652;SDS011;18261;53.648;9.910;2022-12-18T02:32:20;46.33;;;20.40;;
31652;SDS011;18261;53.648;9.910;2022-12-18T02:34:47;40.75;;;19.20;;
31652;SDS011;18261;53.648;9.910;2022-12-18T02:37:15;49.83;;;21.90;;
31652;SDS011;18261;53.648;9.910;2022-12-18T02:39:43;44.50;;;19.67;;
31652;SDS011;18261;53.648;9.910;2022-12-18T02:42:10;45.65;;;20.50;;
31652;SDS011;18261;53.648;9.910;2022-12-18T02:44:49;45.63;;;19.88;;
31652;SDS011;18261;53.648;9.910;2022-12-18T02:47:19;46.72;;;20.67;;
31652;SDS011;18261;53.648;9.910;2022-12-18T02:57:50;46.38;;;19.95;;
31652;SDS011;18261;53.648;9.910;2022-12-18T03:00:20;44.97;;;19.38;;
31652;SDS011;18261;53.648;9.910;2022-12-18T03:02:48;46.53;;;19.80;;
31652;SDS011;18261;53.648;9.910;2022-12-18T03:05:17;38.25;;;18.13;;
31652;SDS011;18261;53.648;9.910;2022-12-18T03:07:57;40.67;;;18.48;;
31652;SDS011;18261;53.648;9.910;2022-12-18T03:10:29;39.70;;;17.70;;
31652;SDS011;18261;53.648;9.910;2022-12-18T03:13:02;45.72;;;20.50;;
31652;SDS011;18261;53.648;9.910;2022-12-18T03:15:30;44.50;;;19.98;;
31652;SDS011;18261;53.648;9.910;2022-12-18T03:17:59;41.90;;;18.67;;
31652;SDS011;18261;53.648;9.910;2022-12-18T03:20:27;41.10;;;18.15;;
31652;SDS011;18261;53.648;9.910;2022-12-18T03:22:57;42.53;;;18.70;;
31652;SDS011;18261;53.648;9.910;2022-12-18T03:25:25;42.33;;;18.10;;
31652;SDS011;18261;53.648;9.910;2022-12-18T03:27:52;39.50;;;19.13;;
31652;SDS011;18261;53.648;9.910;2022-12-18T03:30:20;40.75;;;19.23;;
31652;SDS011;18261;53.648;9.910;2022-12-18T03:32:51;45.15;;;18.08;;
31652;SDS011;18261;53.648;9.910;2022-12-18T03:35:20;37.63;;;17.85;;
31652;SDS011;18261;53.648;9.910;2022-12-18T03:37:47;40.25;;;17.88;;
31652;SDS011;18261;53.648;9.910;2022-12-18T03:40:13;37.55;;;17.88;;
31652;SDS011;18261;53.648;9.910;2022-12-18T03:42:46;38.83;;;18.10;;
31652;SDS011;18261;53.648;9.910;2022-12-18T03:45:24;40.17;;;18.63;;
31652;SDS011;18261;53.648;9.910;2022-12-18T03:48:04;42.75;;;18.10;;
31652;SDS011;18261;53.648;9.910;2022-12-18T03:53:14;42.97;;;18.38;;
31652;SDS011;18261;53.648;9.910;2022-12-18T03:55:43;35.80;;;17.13;;
31652;SDS011;18261;53.648;9.910;2022-12-18T03:58:09;36.55;;;16.70;;
31652;SDS011;18261;53.648;9.910;2022-12-18T04:00:36;41.88;;;17.05;;
31652;SDS011;18261;53.648;9.910;2022-12-18T04:03:03;38.33;;;16.77;;
31652;SDS011;18261;53.648;9.910;2022-12-18T04:05:30;41.67;;;17.95;;
31652;SDS011;18261;53.648;9.910;2022-12-18T04:07:58;36.95;;;16.73;;
31652;SDS011;18261;53.648;9.910;2022-12-18T04:10:24;43.85;;;17.75;;
31652;SDS011;18261;53.648;9.910;2022-12-18T04:12:50;40.17;;;17.42;;
31652;SDS011;18261;53.648;9.910;2022-12-18T04:15:16;38.35;;;16.20;;
31652;SDS011;18261;53.648;9.910;2022-12-18T04:17:46;34.83;;;16.45;;
31652;SDS011;18261;53.648;9.910;2022-12-18T04:20:12;35.35;;;16.83;;
31652;SDS011;18261;53.648;9.910;2022-12-18T04:22:38;37.45;;;17.05;;
31652;SDS011;18261;53.648;9.910;2022-12-18T04:25:04;38.50;;;17.02;;
31652;SDS011;18261;53.648;9.910;2022-12-18T04:27:30;38.90;;;16.00;;
31652;SDS011;18261;53.648;9.910;2022-12-18T04:29:56;38.92;;;16.58;;
31652;SDS011;18261;53.648;9.910;2022-12-18T04:32:22;37.17;;;16.23;;
31652;SDS011;18261;53.648;9.910;2022-12-18T04:34:48;41.63;;;17.88;;
31652;SDS011;18261;53.648;9.910;2022-12-18T04:37:14;39.83;;;16.40;;
31652;SDS011;18261;53.648;9.910;2022-12-18T04:39:40;40.92;;;17.00;;
31652;SDS011;18261;53.648;9.910;2022-12-18T04:42:06;38.80;;;16.65;;
31652;SDS011;18261;53.648;9.910;2022-12-18T04:44:32;43.33;;;16.70;;
31652;SDS011;18261;53.648;9.910;2022-12-18T04:46:58;38.45;;;15.95;;
31652;SDS011;18261;53.648;9.910;2022-12-18T04:49:24;35.33;;;16.05;;
31652;SDS011;18261;53.648;9.910;2022-12-18T04:51:50;39.47;;;17.33;;
31652;SDS011;18261;53.648;9.910;2022-12-18T04:54:16;37.05;;;16.13;;
31652;SDS011;18261;53.648;9.910;2022-12-18T04:56:42;36.20;;;16.08;;
31652;SDS011;18261;53.648;9.910;2022-12-18T04:59:08;41.63;;;15.70;;
31652;SDS011;18261;53.648;9.910;2022-12-18T05:01:34;33.22;;;15.48;;
31652;SDS011;18261;53.648;9.910;2022-12-18T05:04:00;32.53;;;15.25;;
31652;SDS011;18261;53.648;9.910;2022-12-18T05:06:26;34.83;;;15.82;;
31652;SDS011;18261;53.648;9.910;2022-12-18T05:08:52;30.20;;;14.52;;
31652;SDS011;18261;53.648;9.910;2022-12-18T05:11:18;34.97;;;16.08;;
31652;SDS011;18261;53.648;9.910;2022-12-18T05:13:44;30.65;;;14.70;;
31652;SDS011;18261;53.648;9.910;2022-12-18T05:16:11;33.65;;;15.90;;
31652;SDS011;18261;53.648;9.910;2022-12-18T05:18:37;34.47;;;14.80;;
31652;SDS011;18261;53.648;9.910;2022-12-18T05:21:03;33.65;;;14.88;;
31652;SDS011;18261;53.648;9.910;2022-12-18T05:23:29;34.55;;;15.50;;
31652;SDS011;18261;53.648;9.910;2022-12-18T05:25:56;31.05;;;14.90;;
31652;SDS011;18261;53.648;9.910;2022-12-18T05:28:23;41.42;;;16.70;;
31652;SDS011;18261;53.648;9.910;2022-12-18T05:30:50;32.25;;;13.95;;
31652;SDS011;18261;53.648;9.910;2022-12-18T05:33:17;38.63;;;15.20;;
31652;SDS011;18261;53.648;9.910;2022-12-18T05:35:43;30.27;;;15.60;;
31652;SDS011;18261;53.648;9.910;2022-12-18T05:38:09;36.42;;;14.75;;
31652;SDS011;18261;53.648;9.910;2022-12-18T05:40:35;33.53;;;14.65;;
31652;SDS011;18261;53.648;9.910;2022-12-18T05:43:01;34.03;;;15.00;;
31652;SDS011;18261;53.648;9.910;2022-12-18T05:45:27;34.53;;;15.65;;
31652;SDS011;18261;53.648;9.910;2022-12-18T05:47:53;29.13;;;14.65;;
31652;SDS011;18261;53.648;9.910;2022-12-18T05:50:19;43.58;;;16.50;;
31652;SDS011;18261;53.648;9.910;2022-12-18T05:52:45;28.60;;;13.85;;
31652;SDS011;18261;53.648;9.910;2022-12-18T05:55:11;30.35;;;15.50;;
31652;SDS011;18261;53.648;9.910;2022-12-18T05:57:37;35.60;;;15.07;;
31652;SDS011;18261;53.648;9.910;2022-12-18T06:00:03;34.38;;;14.90;;
31652;SDS011;18261;53.648;9.910;2022-12-18T06:02:29;35.15;;;15.10;;
31652;SDS011;18261;53.648;9.910;2022-12-18T06:04:55;40.25;;;15.70;;
31652;SDS011;18261;53.648;9.910;2022-12-18T06:07:21;42.60;;;15.85;;
31652;SDS011;18261;53.648;9.910;2022-12-18T06:09:47;37.45;;;15.82;;
31652;SDS011;18261;53.648;9.910;2022-12-18T06:12:13;33.85;;;15.13;;
31652;SDS011;18261;53.648;9.910;2022-12-18T06:14:39;38.20;;;16.45;;
31652;SDS011;18261;53.648;9.910;2022-12-18T06:17:05;34.00;;;15.90;;
31652;SDS011;18261;53.648;9.910;2022-12-18T06:19:31;34.50;;;16.48;;
31652;SDS011;18261;53.648;9.910;2022-12-18T06:21:57;38.20;;;16.65;;
31652;SDS011;18261;53.648;9.910;2022-12-18T06:24:23;38.80;;;18.13;;
31652;SDS011;18261;53.648;9.910;2022-12-18T06:26:49;38.63;;;15.88;;
31652;SDS011;18261;53.648;9.910;2022-12-18T06:29:16;35.50;;;16.83;;
31652;SDS011;18261;53.648;9.910;2022-12-18T06:31:43;49.28;;;19.80;;
31652;SDS011;18261;53.648;9.910;2022-12-18T06:34:09;49.47;;;18.25;;
31652;SDS011;18261;53.648;9.910;2022-12-18T06:36:35;42.10;;;18.58;;
31652;SDS011;18261;53.648;9.910;2022-12-18T06:39:00;39.70;;;18.70;;
31652;SDS011;18261;53.648;9.910;2022-12-18T06:41:26;36.13;;;18.13;;
31652;SDS011;18261;53.648;9.910;2022-12-18T06:43:52;37.47;;;17.98;;
31652;SDS011;18261;53.648;9.910;2022-12-18T06:46:18;35.45;;;16.88;;
31652;SDS011;18261;53.648;9.910;2022-12-18T06:48:48;34.67;;;17.27;;
31652;SDS011;18261;53.648;9.910;2022-12-18T06:51:21;41.33;;;16.45;;
31652;SDS011;18261;53.648;9.910;2022-12-18T06:53:47;35.80;;;16.45;;
31652;SDS011;18261;53.648;9.910;2022-12-18T06:56:13;40.47;;;17.58;;
31652;SDS011;18261;53.648;9.910;2022-12-18T06:58:39;35.50;;;15.40;;
31652;SDS011;18261;53.648;9.910;2022-12-18T07:01:07;29.63;;;15.40;;
31652;SDS011;18261;53.648;9.910;2022-12-18T07:03:33;34.65;;;16.58;;
31652;SDS011;18261;53.648;9.910;2022-12-18T07:05:59;34.75;;;16.00;;
31652;SDS011;18261;53.648;9.910;2022-12-18T07:08:25;34.80;;;15.77;;
31652;SDS011;18261;53.648;9.910;2022-12-18T07:10:51;32.63;;;15.93;;
31652;SDS011;18261;53.648;9.910;2022-12-18T07:13:18;33.58;;;15.85;;
31652;SDS011;18261;53.648;9.910;2022-12-18T07:15:44;36.22;;;16.85;;
31652;SDS011;18261;53.648;9.910;2022-12-18T07:18:10;36.60;;;16.25;;
31652;SDS011;18261;53.648;9.910;2022-12-18T07:20:36;34.15;;;16.60;;
31652;SDS011;18261;53.648;9.910;2022-12-18T07:23:03;34.20;;;15.85;;
31652;SDS011;18261;53.648;9.910;2022-12-18T07:25:30;36.78;;;16.67;;
31652;SDS011;18261;53.648;9.910;2022-12-18T07:27:56;33.85;;;15.50;;
31652;SDS011;18261;53.648;9.910;2022-12-18T07:30:21;30.42;;;14.68;;
31652;SDS011;18261;53.648;9.910;2022-12-18T07:32:47;36.33;;;15.98;;
31652;SDS011;18261;53.648;9.910;2022-12-18T07:35:13;38.15;;;15.77;;
31652;SDS011;18261;53.648;9.910;2022-12-18T07:37:39;32.58;;;15.85;;
31652;SDS011;18261;53.648;9.910;2022-12-18T07:40:06;34.58;;;14.75;;
31652;SDS011;18261;53.648;9.910;2022-12-18T07:42:32;37.08;;;15.60;;
31652;SDS011;18261;53.648;9.910;2022-12-18T07:44:58;36.22;;;14.68;;
31652;SDS011;18261;53.648;9.910;2022-12-18T07:47:25;34.90;;;15.95;;
31652;SDS011;18261;53.648;9.910;2022-12-18T07:49:51;32.85;;;15.90;;
31652;SDS011;18261;53.648;9.910;2022-12-18T07:52:17;36.25;;;15.35;;
31652;SDS011;18261;53.648;9.910;2022-12-18T07:54:43;38.28;;;16.33;;
31652;SDS011;18261;53.648;9.910;2022-12-18T07:57:09;42.88;;;16.17;;
31652;SDS011;18261;53.648;9.910;2022-12-18T07:59:36;38.63;;;15.73;;
31652;SDS011;18261;53.648;9.910;2022-12-18T08:02:02;32.22;;;16.00;;
31652;SDS011;18261;53.648;9.910;2022-12-18T08:04:28;34.95;;;15.93;;
31652;SDS011;18261;53.648;9.910;2022-12-18T08:06:54;34.90;;;15.00;;
31652;SDS011;18261;53.648;9.910;2022-12-18T08:09:20;34.58;;;15.50;;
31652;SDS011;18261;53.648;9.910;2022-12-18T08:11:46;40.13;;;16.80;;
31652;SDS011;18261;53.648;9.910;2022-12-18T08:14:12;33.15;;;15.40;;
31652;SDS011;18261;53.648;9.910;2022-12-18T08:16:39;34.92;;;15.30;;
31652;SDS011;18261;53.648;9.910;2022-12-18T08:19:05;36.58;;;15.90;;
31652;SDS011;18261;53.648;9.910;2022-12-18T08:21:31;36.42;;;15.48;;
31652;SDS011;18261;53.648;9.910;2022-12-18T08:23:59;40.05;;;15.50;;
31652;SDS011;18261;53.648;9.910;2022-12-18T08:26:26;42.67;;;16.45;;
31652;SDS011;18261;53.648;9.910;2022-12-18T08:28:53;33.60;;;15.00;;
31652;SDS011;18261;53.648;9.910;2022-12-18T08:31:20;35.50;;;16.50;;
31652;SDS011;18261;53.648;9.910;2022-12-18T08:33:47;35.53;;;16.17;;
31652;SDS011;18261;53.648;9.910;2022-12-18T08:36:14;37.38;;;17.10;;
31652;SDS011;18261;53.648;9.910;2022-12-18T08:38:40;37.38;;;16.65;;
31652;SDS011;18261;53.648;9.910;2022-12-18T08:41:06;45.45;;;17.95;;
31652;SDS011;18261;53.648;9.910;2022-12-18T08:43:33;36.85;;;16.80;;
31652;SDS011;18261;53.648;9.910;2022-12-18T08:46:18;38.55;;;16.48;;
31652;SDS011;18261;53.648;9.910;2022-12-18T08:48:44;33.88;;;17.40;;
31652;SDS011;18261;53.648;9.910;2022-12-18T08:51:10;42.40;;;18.73;;
31652;SDS011;18261;53.648;9.910;2022-12-18T08:53:37;34.17;;;16.58;;
31652;SDS011;18261;53.648;9.910;2022-12-18T08:56:03;42.67;;;17.90;;
31652;SDS011;18261;53.648;9.910;2022-12-18T08:58:29;41.65;;;17.33;;
31652;SDS011;18261;53.648;9.910;2022-12-18T09:01:08;39.92;;;17.65;;
31652;SDS011;18261;53.648;9.910;2022-12-18T09:03:34;37.53;;;18.08;;
31652;SDS011;18261;53.648;9.910;2022-12-18T09:06:00;35.95;;;17.65;;
31652;SDS011;18261;53.648;9.910;2022-12-18T09:08:26;47.38;;;17.05;;
31652;SDS011;18261;53.648;9.910;2022-12-18T09:10:53;42.97;;;17.63;;
31652;SDS011;18261;53.648;9.910;2022-12-18T09:13:20;38.38;;;16.60;;
31652;SDS011;18261;53.648;9.910;2022-12-18T09:15:47;38.20;;;16.30;;
31652;SDS011;18261;53.648;9.910;2022-12-18T09:18:14;34.17;;;15.18;;
31652;SDS011;18261;53.648;9.910;2022-12-18T09:20:41;29.25;;;14.40;;
31652;SDS011;18261;53.648;9.910;2022-12-18T09:23:07;33.53;;;15.27;;
31652;SDS011;18261;53.648;9.910;2022-12-18T09:25:33;32.42;;;13.02;;
31652;SDS011;18261;53.648;9.910;2022-12-18T09:28:01;29.48;;;13.60;;
31652;SDS011;18261;53.648;9.910;2022-12-18T09:30:27;32.67;;;14.82;;
31652;SDS011;18261;53.648;9.910;2022-12-18T09:32:53;33.28;;;14.68;;
31652;SDS011;18261;53.648;9.910;2022-12-18T09:35:19;28.38;;;12.90;;
31652;SDS011;18261;53.648;9.910;2022-12-18T09:37:45;33.03;;;13.88;;
31652;SDS011;18261;53.648;9.910;2022-12-18T09:40:14;32.55;;;14.20;;
31652;SDS011;18261;53.648;9.910;2022-12-18T09:42:42;30.42;;;14.55;;
31652;SDS011;18261;53.648;9.910;2022-12-18T09:45:12;30.90;;;15.02;;
31652;SDS011;18261;53.648;9.910;2022-12-18T09:47:39;34.08;;;13.82;;
31652;SDS011;18261;53.648;9.910;2022-12-18T09:52:52;29.15;;;13.57;;
31652;SDS011;18261;53.648;9.910;2022-12-18T09:57:52;28.98;;;14.40;;
31652;SDS011;18261;53.648;9.910;2022-12-18T10:00:23;36.80;;;15.20;;
31652;SDS011;18261;53.648;9.910;2022-12-18T10:02:53;32.90;;;14.35;;
31652;SDS011;18261;53.648;9.910;2022-12-18T10:05:29;28.83;;;13.55;;
31652;SDS011;18261;53.648;9.910;2022-12-18T10:08:02;32.95;;;13.90;;
31652;SDS011;18261;53.648;9.910;2022-12-18T10:15:49;34.08;;;14.68;;
31652;SDS011;18261;53.648;9.910;2022-12-18T10:18:33;36.80;;;15.18;;
31652;SDS011;18261;53.648;9.910;2022-12-18T10:21:37;35.53;;;15.48;;
31652;SDS011;18261;53.648;9.910;2022-12-18T10:23:59;29.08;;;14.25;;
31652;SDS011;18261;53.648;9.910;2022-12-18T10:26:28;29.60;;;12.82;;
31652;SDS011;18261;53.648;9.910;2022-12-18T10:28:57;28.80;;;13.52;;
31652;SDS011;18261;53.648;9.910;2022-12-18T10:31:24;28.45;;;14.23;;
31652;SDS011;18261;53.648;9.910;2022-12-18T10:33:50;38.88;;;14.98;;
31652;SDS011;18261;53.648;9.910;2022-12-18T10:36:16;36.92;;;14.23;;
31652;SDS011;18261;53.648;9.910;2022-12-18T10:38:42;32.88;;;14.18;;
31652;SDS011;18261;53.648;9.910;2022-12-18T10:43:39;34.03;;;14.05;;
31652;SDS011;18261;53.648;9.910;2022-12-18T10:51:20;32.67;;;15.05;;
31652;SDS011;18261;53.648;9.910;2022-12-18T10:53:51;31.83;;;14.43;;
31652;SDS011;18261;53.648;9.910;2022-12-18T10:56:18;28.50;;;14.63;;
31652;SDS011;18261;53.648;9.910;2022-12-18T10:58:46;31.67;;;14.27;;
31652;SDS011;18261;53.648;9.910;2022-12-18T11:01:20;31.70;;;14.68;;
31652;SDS011;18261;53.648;9.910;2022-12-18T11:06:19;29.73;;;14.00;;
31652;SDS011;18261;53.648;9.910;2022-12-18T11:09:01;26.27;;;13.50;;
31652;SDS011;18261;53.648;9.910;2022-12-18T11:11:27;27.50;;;13.93;;
31652;SDS011;18261;53.648;9.910;2022-12-18T11:14:06;29.40;;;13.77;;
31652;SDS011;18261;53.648;9.910;2022-12-18T11:16:46;28.23;;;13.63;;
31652;SDS011;18261;53.648;9.910;2022-12-18T11:21:57;27.13;;;13.23;;
31652;SDS011;18261;53.648;9.910;2022-12-18T11:24:30;31.70;;;12.77;;
31652;SDS011;18261;53.648;9.910;2022-12-18T11:27:00;29.23;;;12.75;;
31652;SDS011;18261;53.648;9.910;2022-12-18T11:29:28;30.80;;;14.18;;
31652;SDS011;18261;53.648;9.910;2022-12-18T11:34:46;30.10;;;14.00;;
31652;SDS011;18261;53.648;9.910;2022-12-18T11:37:14;31.25;;;13.95;;
31652;SDS011;18261;53.648;9.910;2022-12-18T11:39:52;37.50;;;14.18;;
31652;SDS011;18261;53.648;9.910;2022-12-18T11:42:22;27.63;;;13.73;;
31652;SDS011;18261;53.648;9.910;2022-12-18T11:44:50;32.67;;;13.50;;
31652;SDS011;18261;53.648;9.910;2022-12-18T11:49:45;29.65;;;13.43;;
31652;SDS011;18261;53.648;9.910;2022-12-18T11:52:21;27.80;;;13.48;;
31652;SDS011;18261;53.648;9.910;2022-12-18T12:10:40;32.22;;;13.88;;
31652;SDS011;18261;53.648;9.910;2022-12-18T12:13:25;31.70;;;14.50;;
31652;SDS011;18261;53.648;9.910;2022-12-18T12:18:55;29.55;;;15.13;;
31652;SDS011;18261;53.648;9.910;2022-12-18T12:21:34;36.67;;;16.25;;
31652;SDS011;18261;53.648;9.910;2022-12-18T12:31:42;36.63;;;17.80;;
31652;SDS011;18261;53.648;9.910;2022-12-18T12:36:42;46.67;;;20.10;;
31652;SDS011;18261;53.648;9.910;2022-12-18T12:39:16;41.47;;;19.33;;
31652;SDS011;18261;53.648;9.910;2022-12-18T12:41:43;37.00;;;18.83;;
31652;SDS011;18261;53.648;9.910;2022-12-18T12:44:32;41.60;;;18.80;;
31652;SDS011;18261;53.648;9.910;2022-12-18T12:47:00;36.67;;;17.70;;
31652;SDS011;18261;53.648;9.910;2022-12-18T12:49:29;38.83;;;17.92;;
31652;SDS011;18261;53.648;9.910;2022-12-18T12:52:16;41.58;;;17.58;;
31652;SDS011;18261;53.648;9.910;2022-12-18T12:54:44;34.05;;;17.08;;
31652;SDS011;18261;53.648;9.910;2022-12-18T12:59:38;32.25;;;16.60;;
31652;SDS011;18261;53.648;9.910;2022-12-18T13:04:39;37.17;;;16.95;;
31652;SDS011;18261;53.648;9.910;2022-12-18T13:07:24;37.67;;;18.20;;
31652;SDS011;18261;53.648;9.910;2022-12-18T13:12:37;39.13;;;18.05;;
31652;SDS011;18261;53.648;9.910;2022-12-18T13:15:24;35.15;;;17.27;;
31652;SDS011;18261;53.648;9.910;2022-12-18T13:25:47;38.35;;;17.73;;
31652;SDS011;18261;53.648;9.910;2022-12-18T13:28:14;38.00;;;18.60;;
31652;SDS011;18261;53.648;9.910;2022-12-18T13:48:21;46.90;;;20.27;;
31652;SDS011;18261;53.648;9.910;2022-12-18T13:50:49;45.60;;;20.63;;
31652;SDS011;18261;53.648;9.910;2022-12-18T13:53:18;47.42;;;21.20;;
31652;SDS011;18261;53.648;9.910;2022-12-18T13:55:46;51.75;;;21.80;;
31652;SDS011;18261;53.648;9.910;2022-12-18T13:58:12;61.70;;;22.08;;
31652;SDS011;18261;53.648;9.910;2022-12-18T14:00:41;47.10;;;20.80;;
31652;SDS011;18261;53.648;9.910;2022-12-18T14:03:18;55.33;;;22.02;;
31652;SDS011;18261;53.648;9.910;2022-12-18T14:05:44;51.15;;;20.58;;
31652;SDS011;18261;53.648;9.910;2022-12-18T14:08:12;54.72;;;23.88;;
31652;SDS011;18261;53.648;9.910;2022-12-18T14:10:46;52.05;;;21.98;;
31652;SDS011;18261;53.648;9.910;2022-12-18T14:13:29;42.17;;;17.20;;
31652;SDS011;18261;53.648;9.910;2022-12-18T14:15:56;55.45;;;24.02;;
31652;SDS011;18261;53.648;9.910;2022-12-18T14:18:37;67.45;;;24.85;;
31652;SDS011;18261;53.648;9.910;2022-12-18T14:21:03;57.03;;;24.98;;
31652;SDS011;18261;53.648;9.910;2022-12-18T14:25:59;65.13;;;26.25;;
31652;SDS011;18261;53.648;9.910;2022-12-18T14:28:25;55.80;;;23.95;;
31652;SDS011;18261;53.648;9.910;2022-12-18T14:30:52;66.05;;;26.15;;
31652;SDS011;18261;53.648;9.910;2022-12-18T14:33:21;58.72;;;25.45;;
31652;SDS011;18261;53.648;9.910;2022-12-18T14:35:52;64.43;;;26.10;;
31652;SDS011;18261;53.648;9.910;2022-12-18T14:40:51;62.78;;;25.98;;
31652;SDS011;18261;53.648;9.910;2022-12-18T14:43:17;65.95;;;25.42;;
31652;SDS011;18261;53.648;9.910;2022-12-18T14:45:43;64.97;;;27.42;;
31652;SDS011;18261;53.648;9.910;2022-12-18T14:50:36;71.53;;;29.75;;
31652;SDS011;18261;53.648;9.910;2022-12-18T14:53:03;62.92;;;26.10;;
31652;SDS011;18261;53.648;9.910;2022-12-18T14:55:29;63.60;;;25.55;;
31652;SDS011;18261;53.648;9.910;2022-12-18T14:57:55;66.28;;;26.80;;
31652;SDS011;18261;53.648;9.910;2022-12-18T15:00:22;77.35;;;29.35;;
31652;SDS011;18261;53.648;9.910;2022-12-18T15:02:53;66.82;;;27.30;;
31652;SDS011;18261;53.648;9.910;2022-12-18T15:05:27;67.80;;;27.08;;
31652;SDS011;18261;53.648;9.910;2022-12-18T15:07:54;68.55;;;28.23;;
31652;SDS011;18261;53.648;9.910;2022-12-18T15:10:45;80.50;;;30.30;;
31652;SDS011;18261;53.648;9.910;2022-12-18T15:13:15;75.55;;;28.63;;
31652;SDS011;18261;53.648;9.910;2022-12-18T15:15:46;72.38;;;29.27;;
31652;SDS011;18261;53.648;9.910;2022-12-18T15:18:17;75.47;;;28.88;;
31652;SDS011;18261;53.648;9.910;2022-12-18T15:23:21;77.47;;;30.40;;
31652;SDS011;18261;53.648;9.910;2022-12-18T15:25:48;76.63;;;29.88;;
31652;SDS011;18261;53.648;9.910;2022-12-18T15:28:24;81.35;;;31.17;;
31652;SDS011;18261;53.648;9.910;2022-12-18T15:30:58;82.82;;;31.63;;
31652;SDS011;18261;53.648;9.910;2022-12-18T15:33:25;58.55;;;22.92;;
31652;SDS011;18261;53.648;9.910;2022-12-18T15:36:02;86.22;;;30.95;;
31652;SDS011;18261;53.648;9.910;2022-12-18T15:38:28;85.75;;;31.60;;
31652;SDS011;18261;53.648;9.910;2022-12-18T15:40:54;87.63;;;32.13;;
31652;SDS011;18261;53.648;9.910;2022-12-18T15:43:23;82.18;;;33.13;;
31652;SDS011;18261;53.648;9.910;2022-12-18T15:46:06;92.38;;;31.95;;
31652;SDS011;18261;53.648;9.910;2022-12-18T15:48:33;88.22;;;31.33;;
31652;SDS011;18261;53.648;9.910;2022-12-18T15:51:00;84.78;;;32.15;;
31652;SDS011;18261;53.648;9.910;2022-12-18T15:53:30;82.70;;;31.08;;
31652;SDS011;18261;53.648;9.910;2022-12-18T15:55:57;93.72;;;31.50;;
31652;SDS011;18261;53.648;9.910;2022-12-18T15:58:42;80.53;;;30.50;;
31652;SDS011;18261;53.648;9.910;2022-12-18T16:01:08;80.70;;;30.13;;
31652;SDS011;18261;53.648;9.910;2022-12-18T16:03:35;84.75;;;31.02;;
31652;SDS011;18261;53.648;9.910;2022-12-18T16:06:01;78.00;;;28.83;;
31652;SDS011;18261;53.648;9.910;2022-12-18T16:08:27;87.63;;;31.60;;
31652;SDS011;18261;53.648;9.910;2022-12-18T16:10:54;91.45;;;32.20;;
31652;SDS011;18261;53.648;9.910;2022-12-18T16:13:20;82.47;;;30.48;;
31652;SDS011;18261;53.648;9.910;2022-12-18T16:15:47;85.50;;;30.52;;
31652;SDS011;18261;53.648;9.910;2022-12-18T16:18:13;72.45;;;29.33;;
31652;SDS011;18261;53.648;9.910;2022-12-18T16:20:39;81.28;;;29.15;;
31652;SDS011;18261;53.648;9.910;2022-12-18T16:23:06;84.03;;;30.38;;
31652;SDS011;18261;53.648;9.910;2022-12-18T16:25:32;76.55;;;29.05;;
31652;SDS011;18261;53.648;9.910;2022-12-18T16:27:58;81.07;;;29.92;;
31652;SDS011;18261;53.648;9.910;2022-12-18T16:30:25;79.05;;;29.45;;